Terminal Aerodrome Forecast
Issued by NWS

Home | Current Version | Previous Version | Text Only | Print | Product List | Glossary On
Versions: 1 2 3 4 5 6 7 8 9 10 11 12 13 14 15 16 17 18 19 20 21 22
000
FTUS44 KTSA 210540
TAFFYV
TAF
KFYV 210540Z 2106/2206 VRB03KT P6SM OVC070
      TEMPO 2106/2109 3SM BR OVC020
     FM210900 VRB03KT 3SM BR OVC050
      TEMPO 2109/2113 OVC025
     FM211600 34005KT P6SM SCT015 BKN100
     FM212100 34007KT P6SM SCT250=

USA.gov is the U.S. government's official web portal to all federal, state and local government web resources and services.